Airport View

Enter AWOS ICAO identifier for current METAR.

ex. KFNL

KHBI 200015Z AUTO 00000KT 10SM CLR 15/14 A3027 RMK AO2 T01540142

20 Oct 2020 00:16

Frequency: 119.275

Phone: 336-626-7933

Other Area AWOS: KVUJ - KSCR - KEXX - KGSO

TAF KGSO 191739Z 1918/2018 VRB03KT P6SM FEW250 FM200800 VRB03KT 3SM BR SCT003 TEMPO 2010/2014 1SM BR BKN002 FM201600 VRB03KT P6SM SKC